createdAt,value
2019-01-23T00:00:40.867Z,94.90
2019-01-23T00:03:13.008Z,95.60
2019-01-23T00:05:45.196Z,96.30
2019-01-23T00:08:16.973Z,97.10
2019-01-23T00:10:49.225Z,98.10
2019-01-23T00:13:21.267Z,98.80
2019-01-23T00:15:53.888Z,99.30
2019-01-23T00:18:26.116Z,99.90
2019-01-23T00:20:58.156Z,99.90
2019-01-23T00:23:30.077Z,99.90
2019-01-23T00:29:14.080Z,99.90
2019-01-23T00:31:48.547Z,99.90
2019-01-23T00:34:21.155Z,99.90
2019-01-23T00:36:53.544Z,99.90
2019-01-23T00:39:25.462Z,99.90
2019-01-23T00:41:58.093Z,99.90
2019-01-23T00:44:30.240Z,99.90
2019-01-23T00:47:02.205Z,99.90
2019-01-23T00:49:34.150Z,99.90
2019-01-23T00:52:06.422Z,99.90
2019-01-23T00:54:38.770Z,99.90
2019-01-23T00:57:11.344Z,99.90
2019-01-23T00:59:43.463Z,99.90
2019-01-23T01:02:15.435Z,99.90
2019-01-23T01:04:47.661Z,99.90
2019-01-23T01:07:19.858Z,99.90
2019-01-23T01:09:52.273Z,99.90
2019-01-23T01:12:24.113Z,99.90
2019-01-23T01:14:56.233Z,99.90
2019-01-23T01:17:28.331Z,99.90
2019-01-23T01:20:00.656Z,99.90
2019-01-23T01:22:32.684Z,99.90
2019-01-23T01:25:05.516Z,99.90
2019-01-23T01:27:37.474Z,99.90
2019-01-23T01:30:17.744Z,99.90
2019-01-23T01:32:50.305Z,99.90
2019-01-23T01:35:22.193Z,99.90
2019-01-23T01:37:54.146Z,99.90
2019-01-23T01:40:26.347Z,99.90
2019-01-23T01:42:58.982Z,99.90
2019-01-23T01:45:31.395Z,99.90
2019-01-23T01:48:03.566Z,99.90
2019-01-23T01:50:35.772Z,99.90
2019-01-23T01:53:07.993Z,99.90
2019-01-23T01:55:40.064Z,99.90
2019-01-23T01:58:12.774Z,99.90
2019-01-23T02:00:46.485Z,99.90
2019-01-23T02:03:19.345Z,99.90
2019-01-23T02:05:51.694Z,99.90
2019-01-23T02:08:24.059Z,99.90
2019-01-23T02:10:56.366Z,99.90
2019-01-23T02:13:28.607Z,99.90
2019-01-23T02:16:01.436Z,99.90
2019-01-23T02:18:33.888Z,99.90
2019-01-23T02:21:06.326Z,99.90
2019-01-23T02:23:38.455Z,99.90
2019-01-23T02:26:11.589Z,99.90
2019-01-23T02:31:34.738Z,99.90
2019-01-23T02:34:07.658Z,99.90
2019-01-23T02:36:39.637Z,99.90
2019-01-23T02:39:11.960Z,99.90
2019-01-23T02:41:43.840Z,99.90
2019-01-23T02:44:15.955Z,99.90
2019-01-23T02:46:48.741Z,99.90
2019-01-23T02:49:20.847Z,99.90
2019-01-23T02:51:52.971Z,99.90
2019-01-23T02:54:25.034Z,99.90
2019-01-23T02:56:57.793Z,99.90
2019-01-23T02:59:30.048Z,99.90
2019-01-23T03:02:02.369Z,99.90
2019-01-23T03:04:34.635Z,99.90
2019-01-23T03:07:06.783Z,99.90
2019-01-23T03:09:38.727Z,99.90
2019-01-23T03:12:10.706Z,99.90
2019-01-23T03:14:43.455Z,99.90
2019-01-23T03:17:15.786Z,99.90
2019-01-23T03:19:48.089Z,99.90
2019-01-23T03:22:20.747Z,99.90
2019-01-23T03:24:52.998Z,99.90
2019-01-23T03:27:25.013Z,99.90
2019-01-23T03:29:57.074Z,99.90
2019-01-23T03:32:29.499Z,99.90
2019-01-23T03:35:02.106Z,99.90
2019-01-23T03:37:34.390Z,99.90
2019-01-23T03:40:09.046Z,99.90
2019-01-23T03:42:41.863Z,99.90
2019-01-23T03:45:15.693Z,99.90
2019-01-23T03:47:48.519Z,99.90
2019-01-23T03:50:21.332Z,99.90
2019-01-23T03:52:53.530Z,99.90
2019-01-23T03:55:25.556Z,99.90
2019-01-23T03:57:57.575Z,99.90
2019-01-23T04:00:30.055Z,99.90
2019-01-23T04:03:02.211Z,99.90
2019-01-23T04:05:34.205Z,99.90
2019-01-23T04:08:06.506Z,99.90
2019-01-23T04:10:39.280Z,99.90
2019-01-23T04:13:11.971Z,99.90
2019-01-23T04:15:45.732Z,99.90
2019-01-23T04:18:17.883Z,99.90
2019-01-23T04:20:50.454Z,99.90
2019-01-23T04:23:23.039Z,99.90
2019-01-23T04:25:55.100Z,99.90
2019-01-23T04:28:27.507Z,99.90
2019-01-23T04:30:59.797Z,99.90
2019-01-23T04:33:31.761Z,99.90
2019-01-23T04:36:03.747Z,99.90
2019-01-23T04:38:36.425Z,99.90
2019-01-23T04:41:08.426Z,99.90
2019-01-23T04:43:41.278Z,99.90
2019-01-23T04:46:13.850Z,99.90
2019-01-23T04:48:46.353Z,99.90
2019-01-23T04:51:19.649Z,99.90
2019-01-23T04:53:51.699Z,99.90
2019-01-23T04:56:23.871Z,99.90
2019-01-23T04:58:56.210Z,99.90
2019-01-23T05:01:28.430Z,99.90
2019-01-23T05:04:00.391Z,99.90
2019-01-23T05:06:32.850Z,99.90
2019-01-23T05:09:06.164Z,99.90
2019-01-23T05:11:38.554Z,99.90
2019-01-23T05:14:10.466Z,99.90
2019-01-23T05:16:42.497Z,99.90
2019-01-23T05:19:14.649Z,99.90
2019-01-23T05:21:47.066Z,99.90
2019-01-23T05:24:18.987Z,99.90
2019-01-23T05:26:50.909Z,99.90
2019-01-23T05:29:23.018Z,99.90
2019-01-23T05:31:55.444Z,99.90
2019-01-23T05:34:27.650Z,99.90
2019-01-23T05:37:00.566Z,99.90
2019-01-23T05:39:32.456Z,99.90
2019-01-23T05:42:04.242Z,99.90
2019-01-23T05:44:36.179Z,99.90
2019-01-23T05:47:08.043Z,99.90
2019-01-23T05:49:39.926Z,99.90
2019-01-23T05:52:12.324Z,99.90
2019-01-23T05:54:44.229Z,99.90
2019-01-23T05:57:16.148Z,99.90
2019-01-23T05:59:48.423Z,99.90
2019-01-23T06:02:21.033Z,99.90
2019-01-23T06:04:52.934Z,99.90
2019-01-23T06:07:24.800Z,99.90
2019-01-23T06:09:57.213Z,99.90
2019-01-23T06:12:29.002Z,99.90
2019-01-23T06:15:01.116Z,99.90
2019-01-23T06:17:32.964Z,99.90
2019-01-23T06:20:06.191Z,99.90
2019-01-23T06:22:38.100Z,99.90
2019-01-23T06:25:10.161Z,99.90
2019-01-23T06:27:42.120Z,99.90
2019-01-23T06:30:19.593Z,99.90
2019-01-23T06:32:51.891Z,99.90
2019-01-23T06:35:23.984Z,99.90
2019-01-23T06:37:55.878Z,99.90
2019-01-23T06:40:27.890Z,99.90
2019-01-23T06:43:00.277Z,99.90
2019-01-23T06:45:32.711Z,99.90
2019-01-23T06:48:04.804Z,99.90
2019-01-23T06:50:36.797Z,99.90
2019-01-23T06:53:13.909Z,99.90
2019-01-23T06:55:42.654Z,99.90
2019-01-23T06:58:14.566Z,99.90
2019-01-23T07:00:46.582Z,99.90
2019-01-23T07:03:18.637Z,99.90
2019-01-23T07:05:50.494Z,99.90
2019-01-23T07:08:22.723Z,99.90
2019-01-23T07:10:55.580Z,99.90
2019-01-23T07:13:28.739Z,99.90
2019-01-23T07:16:00.748Z,99.90
2019-01-23T07:18:32.882Z,99.90
2019-01-23T07:21:05.008Z,99.90
2019-01-23T07:23:36.913Z,99.90
2019-01-23T07:26:08.821Z,99.90
2019-01-23T07:28:40.686Z,99.90
2019-01-23T07:31:13.109Z,99.90
2019-01-23T07:33:45.143Z,99.90
2019-01-23T07:36:17.231Z,99.90
2019-01-23T07:38:50.566Z,99.90
2019-01-23T07:41:22.471Z,99.90
2019-01-23T07:43:54.357Z,99.90
2019-01-23T07:46:26.313Z,99.90
2019-01-23T07:48:58.352Z,99.90
2019-01-23T07:51:30.244Z,99.90
2019-01-23T07:54:02.307Z,99.90
2019-01-23T07:56:34.204Z,99.90
2019-01-23T07:59:06.281Z,99.90
2019-01-23T08:01:38.197Z,99.90
2019-01-23T08:04:10.061Z,99.90
2019-01-23T08:06:42.021Z,99.90
2019-01-23T08:09:13.887Z,99.90
2019-01-23T08:11:45.831Z,99.90
2019-01-23T08:14:17.729Z,99.90
2019-01-23T08:16:49.611Z,99.90
2019-01-23T08:19:21.570Z,99.90
2019-01-23T08:21:53.853Z,99.90
2019-01-23T08:24:25.681Z,99.90
2019-01-23T08:26:57.553Z,99.90
2019-01-23T08:29:29.438Z,99.90
2019-01-23T08:32:01.846Z,99.90
2019-01-23T08:34:34.005Z,99.90
2019-01-23T08:37:06.355Z,99.90
2019-01-23T08:39:38.237Z,99.90
2019-01-23T08:42:10.089Z,99.90
2019-01-23T08:44:42.058Z,99.90
2019-01-23T08:47:13.895Z,99.90
2019-01-23T08:49:45.745Z,99.90
2019-01-23T08:52:17.701Z,99.90
2019-01-23T08:54:49.754Z,99.90
2019-01-23T08:57:21.776Z,99.90
2019-01-23T08:59:53.785Z,99.90
2019-01-23T09:02:25.633Z,99.90
2019-01-23T09:04:57.532Z,99.90
2019-01-23T09:07:29.562Z,99.90
2019-01-23T09:10:01.485Z,99.90
2019-01-23T09:12:33.358Z,99.90
2019-01-23T09:15:06.413Z,99.90
2019-01-23T09:17:38.440Z,99.90
2019-01-23T09:20:12.966Z,99.90
2019-01-23T09:22:44.935Z,99.90
2019-01-23T09:25:18.804Z,99.90
2019-01-23T09:27:50.902Z,99.90
2019-01-23T09:30:29.065Z,99.90
2019-01-23T09:33:16.252Z,99.90
2019-01-23T09:36:07.081Z,99.90
2019-01-23T09:38:56.570Z,99.90
2019-01-23T09:41:56.860Z,99.90
2019-01-23T09:44:34.048Z,99.90
2019-01-23T09:47:25.541Z,99.90
2019-01-23T09:50:06.033Z,99.90
2019-01-23T09:52:49.337Z,99.90
2019-01-23T09:55:21.198Z,99.90
2019-01-23T09:57:53.801Z,99.90
2019-01-23T10:00:31.656Z,99.90
2019-01-23T10:03:01.877Z,99.90
2019-01-23T10:05:33.945Z,99.90
2019-01-23T10:08:05.845Z,99.90
2019-01-23T10:10:37.802Z,99.90
2019-01-23T10:13:09.742Z,99.90
2019-01-23T10:15:44.567Z,99.90
2019-01-23T10:18:16.549Z,99.90
2019-01-23T10:20:49.011Z,99.90
2019-01-23T10:23:20.880Z,99.90
2019-01-23T10:25:52.881Z,99.90
2019-01-23T10:28:24.702Z,99.90
2019-01-23T10:30:56.664Z,99.90
2019-01-23T10:33:28.632Z,99.90
2019-01-23T10:36:00.600Z,99.90
2019-01-23T10:38:32.447Z,99.90
2019-01-23T10:41:04.326Z,99.90
2019-01-23T10:43:36.388Z,99.90
2019-01-23T10:46:08.385Z,99.90
2019-01-23T10:48:40.774Z,99.90
2019-01-23T10:51:12.648Z,99.90
2019-01-23T10:53:44.557Z,99.90
2019-01-23T10:56:16.715Z,99.90
2019-01-23T10:58:48.570Z,99.90
2019-01-23T11:01:20.613Z,99.90
2019-01-23T11:03:52.530Z,99.90
2019-01-23T11:06:24.917Z,99.90
2019-01-23T11:08:56.857Z,99.90
2019-01-23T11:11:28.996Z,99.90
2019-01-23T11:14:00.854Z,99.90
2019-01-23T11:16:32.849Z,99.90
2019-01-23T11:19:04.829Z,99.90
2019-01-23T11:21:36.711Z,99.90
2019-01-23T11:24:08.862Z,99.90
2019-01-23T11:26:40.825Z,99.90
2019-01-23T11:29:13.005Z,99.90
2019-01-23T11:31:45.039Z,99.90
2019-01-23T11:34:16.876Z,99.90
2019-01-23T11:36:48.858Z,99.90
2019-01-23T11:39:21.908Z,99.90
2019-01-23T11:41:54.318Z,99.90
2019-01-23T11:44:26.409Z,99.90
2019-01-23T11:46:58.325Z,99.90
2019-01-23T11:49:30.388Z,99.90
2019-01-23T11:52:02.349Z,99.90
2019-01-23T11:54:34.228Z,99.90
2019-01-23T11:57:06.526Z,99.90
2019-01-23T11:59:38.442Z,99.90
2019-01-23T12:02:10.978Z,99.90
2019-01-23T12:04:43.969Z,99.90
2019-01-23T12:07:15.954Z,99.90
2019-01-23T12:09:47.912Z,99.90
2019-01-23T12:12:20.530Z,99.90
2019-01-23T12:14:52.503Z,99.90
2019-01-23T12:17:24.360Z,99.90
2019-01-23T12:19:56.655Z,99.90
2019-01-23T12:22:28.722Z,99.90
2019-01-23T12:25:00.669Z,99.90
2019-01-23T12:27:32.625Z,99.90
2019-01-23T12:30:06.012Z,99.90
2019-01-23T12:32:38.216Z,99.90
2019-01-23T12:35:14.714Z,99.90
2019-01-23T12:37:46.995Z,99.90
2019-01-23T12:40:19.873Z,99.90
2019-01-23T12:42:52.309Z,99.90
2019-01-23T12:45:27.818Z,99.90
2019-01-23T12:47:59.893Z,99.90
2019-01-23T12:50:34.363Z,99.90
2019-01-23T12:53:07.375Z,99.90
2019-01-23T12:55:44.025Z,99.90
2019-01-23T12:58:16.093Z,99.90
2019-01-23T13:00:48.255Z,99.90
2019-01-23T13:03:20.730Z,99.90
2019-01-23T13:05:52.773Z,99.90
2019-01-23T13:08:25.147Z,99.90
2019-01-23T13:10:57.152Z,99.90
2019-01-23T13:13:29.089Z,99.90
2019-01-23T13:16:02.799Z,99.90
2019-01-23T13:18:35.156Z,99.90
2019-01-23T13:21:07.345Z,99.90
2019-01-23T13:23:39.342Z,99.90
2019-01-23T13:26:11.386Z,99.90
2019-01-23T13:28:43.383Z,99.90
2019-01-23T13:31:15.318Z,99.90
2019-01-23T13:33:47.595Z,99.90
2019-01-23T13:36:21.446Z,99.90
2019-01-23T13:38:56.409Z,99.90
2019-01-23T13:41:30.098Z,99.90
2019-01-23T13:44:03.647Z,99.90
2019-01-23T13:46:37.698Z,99.90
2019-01-23T13:49:11.661Z,99.90
2019-01-23T13:51:45.163Z,99.90
2019-01-23T13:54:19.392Z,99.90
2019-01-23T13:56:53.061Z,99.90
2019-01-23T13:59:26.733Z,99.90
2019-01-23T14:02:00.289Z,99.90
2019-01-23T14:04:34.163Z,99.90
2019-01-23T14:07:08.041Z,99.90
2019-01-23T14:09:42.055Z,99.90
2019-01-23T14:12:16.264Z,99.90
2019-01-23T14:14:49.783Z,99.90
2019-01-23T14:17:23.348Z,99.90
2019-01-23T14:19:56.817Z,99.90
2019-01-23T14:22:30.781Z,99.90
2019-01-23T14:25:04.546Z,99.90
2019-01-23T14:27:38.866Z,99.90
2019-01-23T14:30:27.083Z,99.90
2019-01-23T14:33:03.559Z,99.90
2019-01-23T14:35:40.968Z,99.90
2019-01-23T14:38:20.443Z,99.90
2019-01-23T14:40:58.133Z,99.90
2019-01-23T14:43:35.368Z,99.90
2019-01-23T14:46:10.754Z,99.90
2019-01-23T14:48:44.984Z,99.90
2019-01-23T14:51:18.781Z,99.90
2019-01-23T14:53:52.352Z,99.90
2019-01-23T14:56:26.104Z,99.90
2019-01-23T14:58:58.305Z,99.90
2019-01-23T15:01:30.655Z,99.90
2019-01-23T15:04:02.886Z,99.90
2019-01-23T15:06:37.009Z,96.50
2019-01-23T15:09:12.170Z,94.90
2019-01-23T15:11:44.782Z,92.20
2019-01-23T15:14:17.744Z,91.90
2019-01-23T15:16:50.460Z,90.60
2019-01-23T15:19:22.581Z,88.80
2019-01-23T15:21:54.808Z,90.60
2019-01-23T15:24:27.691Z,89.30
2019-01-23T15:26:59.767Z,86.80
2019-01-23T15:29:31.902Z,85.90
2019-01-23T15:32:04.663Z,86.10
2019-01-23T15:34:36.904Z,86.30
2019-01-23T15:37:08.947Z,85.80
2019-01-23T15:39:44.462Z,84.10
2019-01-23T15:42:17.814Z,84.10
2019-01-23T15:44:54.921Z,86.20
2019-01-23T15:47:27.909Z,86.40
2019-01-23T15:50:00.246Z,85.20
2019-01-23T15:52:32.385Z,84.90
2019-01-23T15:55:10.727Z,83.00
2019-01-23T15:57:43.442Z,81.50
2019-01-23T16:00:19.227Z,82.80
2019-01-23T16:02:51.221Z,81.70
2019-01-23T16:05:23.426Z,80.30
2019-01-23T16:07:55.742Z,79.70
2019-01-23T16:10:29.616Z,76.50
2019-01-23T16:13:03.056Z,74.20
2019-01-23T16:15:36.123Z,73.10
2019-01-23T16:18:11.566Z,70.90
2019-01-23T16:20:44.734Z,71.10
2019-01-23T16:23:19.064Z,73.50
2019-01-23T16:25:56.093Z,71.80
2019-01-23T16:28:28.328Z,71.30
2019-01-23T16:31:01.279Z,64.20
2019-01-23T16:33:33.433Z,60.30
2019-01-23T16:36:07.005Z,61.00
2019-01-23T16:38:39.273Z,62.00
2019-01-23T16:41:11.738Z,61.50
2019-01-23T16:43:46.432Z,59.50
2019-01-23T16:46:19.013Z,57.50
2019-01-23T16:48:52.142Z,56.60
2019-01-23T16:51:24.519Z,55.60
2019-01-23T16:53:56.972Z,56.90
2019-01-23T16:56:29.257Z,58.60
2019-01-23T16:59:01.770Z,58.30
2019-01-23T17:01:34.050Z,57.40
2019-01-23T17:04:06.671Z,58.80
2019-01-23T17:06:40.006Z,59.70
2019-01-23T17:09:12.260Z,59.00
2019-01-23T17:11:44.190Z,59.80
2019-01-23T17:14:16.978Z,59.50
2019-01-23T17:16:49.318Z,59.50
2019-01-23T17:19:21.320Z,61.10
2019-01-23T17:21:54.086Z,59.70
2019-01-23T17:24:26.305Z,59.60
2019-01-23T17:26:59.086Z,59.60
2019-01-23T17:29:31.758Z,59.90
2019-01-23T17:32:04.583Z,58.20
2019-01-23T17:34:36.994Z,57.40
2019-01-23T17:37:11.321Z,57.40
2019-01-23T17:39:43.969Z,56.70
2019-01-23T17:42:16.533Z,56.60
2019-01-23T17:44:48.533Z,57.20
2019-01-23T17:47:20.845Z,56.10
2019-01-23T17:49:53.829Z,54.00
2019-01-23T17:52:25.722Z,53.30
2019-01-23T17:54:57.991Z,53.90
2019-01-23T17:57:31.233Z,53.70
2019-01-23T18:00:04.641Z,54.20
2019-01-23T18:02:36.850Z,53.50
2019-01-23T18:05:11.181Z,53.90
2019-01-23T18:07:44.058Z,54.50
2019-01-23T18:10:17.486Z,54.10
2019-01-23T18:12:49.925Z,55.40
2019-01-23T18:15:27.614Z,55.60
2019-01-23T18:18:00.355Z,57.00
2019-01-23T18:20:32.747Z,56.90
2019-01-23T18:23:05.337Z,56.20
2019-01-23T18:25:38.728Z,56.60
2019-01-23T18:28:14.095Z,56.70
2019-01-23T18:30:58.149Z,56.60
2019-01-23T18:33:38.310Z,56.60
2019-01-23T18:36:19.477Z,57.50
2019-01-23T18:39:04.680Z,58.40
2019-01-23T18:42:00.964Z,58.20
2019-01-23T18:44:41.286Z,57.20
2019-01-23T18:47:35.638Z,58.00
2019-01-23T18:50:32.650Z,57.20
2019-01-23T18:53:04.695Z,58.20
2019-01-23T18:56:07.243Z,59.40
2019-01-23T18:58:39.155Z,60.40
2019-01-23T19:01:10.908Z,60.30
2019-01-23T19:03:42.877Z,61.20
2019-01-23T19:06:15.155Z,60.20
2019-01-23T19:11:58.910Z,61.70
2019-01-23T19:14:32.841Z,59.50
2019-01-23T19:17:05.692Z,59.80
2019-01-23T19:19:37.541Z,60.60
2019-01-23T19:22:09.491Z,60.90
2019-01-23T19:24:42.447Z,60.70
2019-01-23T19:27:14.495Z,61.40
2019-01-23T19:29:46.854Z,60.30
2019-01-23T19:32:18.698Z,60.10
2019-01-23T19:34:50.940Z,59.80
2019-01-23T19:37:22.635Z,60.10
2019-01-23T19:39:54.624Z,60.00
2019-01-23T19:42:26.729Z,59.20
2019-01-23T19:44:58.902Z,59.40
2019-01-23T19:47:32.267Z,61.00
2019-01-23T19:50:04.118Z,60.70
2019-01-23T19:52:36.294Z,60.20
2019-01-23T19:55:11.636Z,61.10
2019-01-23T20:01:16.018Z,63.20
2019-01-23T20:03:48.327Z,65.40
2019-01-23T20:06:20.007Z,65.80
2019-01-23T20:08:51.665Z,66.70
2019-01-23T20:11:24.217Z,69.00
2019-01-23T20:13:56.216Z,69.60
2019-01-23T20:16:31.042Z,70.30
2019-01-23T20:19:05.976Z,69.40
2019-01-23T20:21:39.529Z,72.20
2019-01-23T20:24:12.636Z,71.50
2019-01-23T20:26:45.739Z,72.20
2019-01-23T20:29:17.553Z,73.10
2019-01-23T20:31:49.352Z,72.70
2019-01-23T20:34:21.427Z,73.00
2019-01-23T20:36:53.490Z,71.70
2019-01-23T20:39:25.949Z,72.60
2019-01-23T20:42:01.184Z,74.90
2019-01-23T20:44:35.427Z,76.50
2019-01-23T20:47:08.875Z,75.90
2019-01-23T20:49:41.347Z,75.00
2019-01-23T20:52:13.455Z,76.40
2019-01-23T20:54:45.163Z,76.40
2019-01-23T20:57:17.021Z,77.80
2019-01-23T20:59:48.892Z,77.60
2019-01-23T21:02:21.308Z,78.40
2019-01-23T21:04:53.235Z,78.40
2019-01-23T21:07:25.241Z,79.30
2019-01-23T21:09:57.043Z,80.10
2019-01-23T21:12:29.056Z,81.10
2019-01-23T21:15:01.487Z,81.70
2019-01-23T21:17:33.338Z,79.80
2019-01-23T21:20:05.994Z,79.10
2019-01-23T21:22:37.948Z,79.50
2019-01-23T21:25:11.705Z,80.20
2019-01-23T21:27:43.795Z,79.90
2019-01-23T21:30:29.214Z,79.10
2019-01-23T21:33:01.425Z,79.30
2019-01-23T21:35:35.936Z,81.90
2019-01-23T21:38:08.898Z,80.30
2019-01-23T21:40:44.184Z,82.10
2019-01-23T21:43:17.263Z,82.00
2019-01-23T21:45:49.305Z,82.10
2019-01-23T21:48:22.175Z,82.50
2019-01-23T21:50:53.922Z,83.30
2019-01-23T21:53:25.765Z,83.00
2019-01-23T21:55:59.326Z,83.40
2019-01-23T21:58:31.229Z,84.90
2019-01-23T22:01:03.227Z,86.50
2019-01-23T22:03:35.323Z,86.00
2019-01-23T22:06:08.817Z,84.90
2019-01-23T22:08:40.710Z,84.50
2019-01-23T22:11:15.286Z,84.30
2019-01-23T22:13:47.104Z,85.50
2019-01-23T22:16:19.431Z,86.90
2019-01-23T22:18:51.197Z,88.50
2019-01-23T22:21:22.853Z,90.10
2019-01-23T22:23:54.869Z,91.00
2019-01-23T22:26:26.732Z,92.00
2019-01-23T22:28:58.400Z,91.70
2019-01-23T22:31:30.544Z,91.60
2019-01-23T22:34:03.500Z,92.10
2019-01-23T22:36:35.915Z,92.50
2019-01-23T22:39:08.916Z,92.70
2019-01-23T22:41:41.729Z,93.20
2019-01-23T22:44:13.473Z,94.00
2019-01-23T22:46:45.375Z,94.60
2019-01-23T22:49:17.021Z,96.00
2019-01-23T22:51:49.442Z,96.40
2019-01-23T22:54:21.769Z,95.80
2019-01-23T22:56:54.573Z,96.70
2019-01-23T22:59:26.868Z,96.70
2019-01-23T23:01:59.213Z,98.00
2019-01-23T23:04:32.235Z,98.80
2019-01-23T23:07:04.584Z,99.40
2019-01-23T23:09:37.903Z,99.90
2019-01-23T23:12:09.704Z,99.90
2019-01-23T23:14:41.424Z,99.90
2019-01-23T23:17:13.189Z,99.90
2019-01-23T23:19:45.840Z,99.90
2019-01-23T23:22:17.914Z,99.90
2019-01-23T23:24:50.394Z,99.90
2019-01-23T23:27:22.384Z,99.90
2019-01-23T23:29:54.767Z,99.90
2019-01-23T23:32:28.073Z,99.90
2019-01-23T23:35:00.416Z,99.90
2019-01-23T23:37:32.494Z,99.90
2019-01-23T23:40:04.502Z,99.90
2019-01-23T23:42:37.308Z,99.90
2019-01-23T23:45:11.918Z,99.90
2019-01-23T23:47:43.687Z,99.90
2019-01-23T23:50:16.831Z,99.90
2019-01-23T23:52:48.595Z,99.90
2019-01-23T23:55:20.785Z,99.90
2019-01-23T23:57:52.753Z,99.90
